sensor_id;sensor_type;location;lat;lon;timestamp;temperature;humidity
7972;DHT22;4031;49.758;6.120;2024-01-11T00:00:37;-7.10;99.90
7972;DHT22;4031;49.758;6.120;2024-01-11T00:03:03;-7.10;99.90
7972;DHT22;4031;49.758;6.120;2024-01-11T00:05:29;-7.10;99.90
7972;DHT22;4031;49.758;6.120;2024-01-11T00:07:55;-7.10;99.90
7972;DHT22;4031;49.758;6.120;2024-01-11T00:10:20;-7.20;99.90
7972;DHT22;4031;49.758;6.120;2024-01-11T00:12:48;-7.30;99.90
7972;DHT22;4031;49.758;6.120;2024-01-11T00:15:13;-7.40;99.90
7972;DHT22;4031;49.758;6.120;2024-01-11T00:17:39;-7.40;99.90
7972;DHT22;4031;49.758;6.120;2024-01-11T00:20:05;-7.50;99.90
7972;DHT22;4031;49.758;6.120;2024-01-11T00:22:33;-7.40;99.90
7972;DHT22;4031;49.758;6.120;2024-01-11T00:24:59;-7.40;99.90
7972;DHT22;4031;49.758;6.120;2024-01-11T00:27:24;-7.40;99.90
7972;DHT22;4031;49.758;6.120;2024-01-11T00:29:50;-7.40;99.90
7972;DHT22;4031;49.758;6.120;2024-01-11T00:32:16;-7.30;99.90
7972;DHT22;4031;49.758;6.120;2024-01-11T00:34:41;-7.40;99.90
7972;DHT22;4031;49.758;6.120;2024-01-11T00:37:07;-7.50;99.90
7972;DHT22;4031;49.758;6.120;2024-01-11T00:39:33;-7.50;99.90
7972;DHT22;4031;49.758;6.120;2024-01-11T00:41:58;-7.60;99.90
7972;DHT22;4031;49.758;6.120;2024-01-11T00:44:24;-7.60;99.90
7972;DHT22;4031;49.758;6.120;2024-01-11T00:46:50;-7.60;99.90
7972;DHT22;4031;49.758;6.120;2024-01-11T00:49:16;-7.70;99.90
7972;DHT22;4031;49.758;6.120;2024-01-11T00:51:41;-7.70;99.90
7972;DHT22;4031;49.758;6.120;2024-01-11T00:54:07;-7.80;99.90
7972;DHT22;4031;49.758;6.120;2024-01-11T00:56:33;-7.90;99.90
7972;DHT22;4031;49.758;6.120;2024-01-11T00:58:58;-7.90;99.90
7972;DHT22;4031;49.758;6.120;2024-01-11T01:01:24;-7.90;99.90
7972;DHT22;4031;49.758;6.120;2024-01-11T01:03:50;-7.90;99.90
7972;DHT22;4031;49.758;6.120;2024-01-11T01:06:15;-7.90;99.90
7972;DHT22;4031;49.758;6.120;2024-01-11T01:08:41;-7.90;99.90
7972;DHT22;4031;49.758;6.120;2024-01-11T01:11:07;-7.70;99.90
7972;DHT22;4031;49.758;6.120;2024-01-11T01:13:32;-7.70;99.90
7972;DHT22;4031;49.758;6.120;2024-01-11T01:15:58;-7.80;99.90
7972;DHT22;4031;49.758;6.120;2024-01-11T01:18:24;-7.80;99.90
7972;DHT22;4031;49.758;6.120;2024-01-11T01:20:50;-7.90;99.90
7972;DHT22;4031;49.758;6.120;2024-01-11T01:23:16;-8.00;99.90
7972;DHT22;4031;49.758;6.120;2024-01-11T01:25:43;-7.90;99.90
7972;DHT22;4031;49.758;6.120;2024-01-11T01:28:08;-8.00;99.90
7972;DHT22;4031;49.758;6.120;2024-01-11T01:30:34;-8.00;99.90
7972;DHT22;4031;49.758;6.120;2024-01-11T01:33:00;-8.00;99.90
7972;DHT22;4031;49.758;6.120;2024-01-11T01:35:25;-8.00;99.90
7972;DHT22;4031;49.758;6.120;2024-01-11T01:37:51;-8.00;99.90
7972;DHT22;4031;49.758;6.120;2024-01-11T01:40:17;-8.10;99.90
7972;DHT22;4031;49.758;6.120;2024-01-11T01:42:43;-8.10;99.90
7972;DHT22;4031;49.758;6.120;2024-01-11T01:45:09;-8.20;99.90
7972;DHT22;4031;49.758;6.120;2024-01-11T01:47:40;-8.20;99.90
7972;DHT22;4031;49.758;6.120;2024-01-11T01:50:07;-8.20;99.90
7972;DHT22;4031;49.758;6.120;2024-01-11T01:52:34;-8.20;99.90
7972;DHT22;4031;49.758;6.120;2024-01-11T01:55:01;-8.20;99.90
7972;DHT22;4031;49.758;6.120;2024-01-11T01:57:28;-8.20;99.90
7972;DHT22;4031;49.758;6.120;2024-01-11T01:59:55;-8.30;99.90
7972;DHT22;4031;49.758;6.120;2024-01-11T02:02:21;-8.30;99.90
7972;DHT22;4031;49.758;6.120;2024-01-11T02:04:47;-8.30;99.90
7972;DHT22;4031;49.758;6.120;2024-01-11T02:07:13;-8.20;99.90
7972;DHT22;4031;49.758;6.120;2024-01-11T02:09:40;-8.20;99.90
7972;DHT22;4031;49.758;6.120;2024-01-11T02:12:06;-8.30;99.90
7972;DHT22;4031;49.758;6.120;2024-01-11T02:14:37;-8.30;99.90
7972;DHT22;4031;49.758;6.120;2024-01-11T02:17:03;-8.40;99.90
7972;DHT22;4031;49.758;6.120;2024-01-11T02:19:29;-8.40;99.90
7972;DHT22;4031;49.758;6.120;2024-01-11T02:21:55;-8.40;99.90
7972;DHT22;4031;49.758;6.120;2024-01-11T02:24:26;-8.40;99.90
7972;DHT22;4031;49.758;6.120;2024-01-11T02:27:03;-8.40;99.90
7972;DHT22;4031;49.758;6.120;2024-01-11T02:29:31;-8.40;99.90
7972;DHT22;4031;49.758;6.120;2024-01-11T02:31:58;-8.40;99.90
7972;DHT22;4031;49.758;6.120;2024-01-11T02:34:26;-8.40;99.90
7972;DHT22;4031;49.758;6.120;2024-01-11T02:36:55;-8.40;99.90
7972;DHT22;4031;49.758;6.120;2024-01-11T02:39:23;-8.40;99.90
7972;DHT22;4031;49.758;6.120;2024-01-11T02:41:55;-8.40;99.90
7972;DHT22;4031;49.758;6.120;2024-01-11T02:44:21;-8.40;99.90
7972;DHT22;4031;49.758;6.120;2024-01-11T02:46:47;-8.50;99.90
7972;DHT22;4031;49.758;6.120;2024-01-11T02:49:13;-8.50;99.90
7972;DHT22;4031;49.758;6.120;2024-01-11T02:51:38;-8.50;99.90
7972;DHT22;4031;49.758;6.120;2024-01-11T02:54:04;-8.50;99.90
7972;DHT22;4031;49.758;6.120;2024-01-11T02:56:30;-8.60;99.90
7972;DHT22;4031;49.758;6.120;2024-01-11T02:58:56;-8.60;99.90
7972;DHT22;4031;49.758;6.120;2024-01-11T03:01:22;-8.60;99.90
7972;DHT22;4031;49.758;6.120;2024-01-11T03:03:47;-8.60;99.90
7972;DHT22;4031;49.758;6.120;2024-01-11T03:06:13;-8.60;99.90
7972;DHT22;4031;49.758;6.120;2024-01-11T03:08:39;-8.70;99.90
7972;DHT22;4031;49.758;6.120;2024-01-11T03:11:05;-8.70;99.90
7972;DHT22;4031;49.758;6.120;2024-01-11T03:13:31;-8.70;99.90
7972;DHT22;4031;49.758;6.120;2024-01-11T03:15:57;-8.80;99.90
7972;DHT22;4031;49.758;6.120;2024-01-11T03:18:23;-8.70;99.90
7972;DHT22;4031;49.758;6.120;2024-01-11T03:20:48;-8.60;99.90
7972;DHT22;4031;49.758;6.120;2024-01-11T03:23:14;-8.60;99.90
7972;DHT22;4031;49.758;6.120;2024-01-11T03:25:40;-8.60;99.90
7972;DHT22;4031;49.758;6.120;2024-01-11T03:28:05;-8.60;99.90
7972;DHT22;4031;49.758;6.120;2024-01-11T03:30:31;-8.60;99.90
7972;DHT22;4031;49.758;6.120;2024-01-11T03:32:57;-8.70;99.90
7972;DHT22;4031;49.758;6.120;2024-01-11T03:35:23;-8.70;99.90
7972;DHT22;4031;49.758;6.120;2024-01-11T03:37:49;-8.70;99.90
7972;DHT22;4031;49.758;6.120;2024-01-11T03:40:14;-8.70;99.90
7972;DHT22;4031;49.758;6.120;2024-01-11T03:42:41;-8.70;99.90
7972;DHT22;4031;49.758;6.120;2024-01-11T03:45:07;-8.70;99.90
7972;DHT22;4031;49.758;6.120;2024-01-11T03:47:33;-8.70;99.90
7972;DHT22;4031;49.758;6.120;2024-01-11T03:49:59;-8.70;99.90
7972;DHT22;4031;49.758;6.120;2024-01-11T03:52:25;-8.80;99.90
7972;DHT22;4031;49.758;6.120;2024-01-11T03:54:50;-8.80;99.90
7972;DHT22;4031;49.758;6.120;2024-01-11T03:57:16;-8.80;99.90
7972;DHT22;4031;49.758;6.120;2024-01-11T03:59:42;-8.80;99.90
7972;DHT22;4031;49.758;6.120;2024-01-11T04:02:08;-8.80;99.90
7972;DHT22;4031;49.758;6.120;2024-01-11T04:04:34;-8.80;99.90
7972;DHT22;4031;49.758;6.120;2024-01-11T04:07:00;-8.90;99.90
7972;DHT22;4031;49.758;6.120;2024-01-11T04:09:25;-8.90;99.90
7972;DHT22;4031;49.758;6.120;2024-01-11T04:11:51;-8.90;99.90
7972;DHT22;4031;49.758;6.120;2024-01-11T04:14:17;-8.80;99.90
7972;DHT22;4031;49.758;6.120;2024-01-11T04:16:43;-8.70;99.90
7972;DHT22;4031;49.758;6.120;2024-01-11T04:19:09;-8.80;99.90
7972;DHT22;4031;49.758;6.120;2024-01-11T04:21:35;-8.80;99.90
7972;DHT22;4031;49.758;6.120;2024-01-11T04:24:04;-8.80;99.90
7972;DHT22;4031;49.758;6.120;2024-01-11T04:26:31;-8.90;99.90
7972;DHT22;4031;49.758;6.120;2024-01-11T04:28:57;-8.80;99.90
7972;DHT22;4031;49.758;6.120;2024-01-11T04:31:25;-8.80;99.90
7972;DHT22;4031;49.758;6.120;2024-01-11T04:33:51;-8.80;99.90
7972;DHT22;4031;49.758;6.120;2024-01-11T04:36:17;-8.70;99.90
7972;DHT22;4031;49.758;6.120;2024-01-11T04:38:43;-8.80;99.90
7972;DHT22;4031;49.758;6.120;2024-01-11T04:41:14;-8.80;99.90
7972;DHT22;4031;49.758;6.120;2024-01-11T04:43:41;-8.80;99.90
7972;DHT22;4031;49.758;6.120;2024-01-11T04:46:22;-8.90;99.90
7972;DHT22;4031;49.758;6.120;2024-01-11T04:48:49;-8.80;99.90
7972;DHT22;4031;49.758;6.120;2024-01-11T04:51:16;-8.80;99.90
7972;DHT22;4031;49.758;6.120;2024-01-11T04:53:44;-8.80;99.90
7972;DHT22;4031;49.758;6.120;2024-01-11T04:56:12;-8.90;99.90
7972;DHT22;4031;49.758;6.120;2024-01-11T04:58:42;-8.80;99.90
7972;DHT22;4031;49.758;6.120;2024-01-11T05:01:16;-8.90;99.90
7972;DHT22;4031;49.758;6.120;2024-01-11T05:03:46;-8.90;99.90
7972;DHT22;4031;49.758;6.120;2024-01-11T05:06:20;-8.90;99.90
7972;DHT22;4031;49.758;6.120;2024-01-11T05:08:51;-8.90;99.90
7972;DHT22;4031;49.758;6.120;2024-01-11T05:11:18;-8.90;99.90
7972;DHT22;4031;49.758;6.120;2024-01-11T05:13:44;-8.90;99.90
7972;DHT22;4031;49.758;6.120;2024-01-11T05:16:24;-8.90;99.90
7972;DHT22;4031;49.758;6.120;2024-01-11T05:18:51;-8.90;99.90
7972;DHT22;4031;49.758;6.120;2024-01-11T05:21:18;-8.80;99.90
7972;DHT22;4031;49.758;6.120;2024-01-11T05:23:44;-8.80;99.90
7972;DHT22;4031;49.758;6.120;2024-01-11T05:26:10;-8.80;99.90
7972;DHT22;4031;49.758;6.120;2024-01-11T05:28:38;-8.70;99.90
7972;DHT22;4031;49.758;6.120;2024-01-11T05:31:11;-8.70;99.90
7972;DHT22;4031;49.758;6.120;2024-01-11T05:33:41;-8.60;99.90
7972;DHT22;4031;49.758;6.120;2024-01-11T05:36:07;-8.50;99.90
7972;DHT22;4031;49.758;6.120;2024-01-11T05:38:34;-8.50;99.90
7972;DHT22;4031;49.758;6.120;2024-01-11T05:41:00;-8.50;99.90
7972;DHT22;4031;49.758;6.120;2024-01-11T05:43:26;-8.50;99.90
7972;DHT22;4031;49.758;6.120;2024-01-11T05:45:52;-8.50;99.90
7972;DHT22;4031;49.758;6.120;2024-01-11T05:48:18;-8.40;99.90
7972;DHT22;4031;49.758;6.120;2024-01-11T05:50:44;-8.40;99.90
7972;DHT22;4031;49.758;6.120;2024-01-11T05:53:10;-8.50;99.90
7972;DHT22;4031;49.758;6.120;2024-01-11T05:55:36;-8.40;99.90
7972;DHT22;4031;49.758;6.120;2024-01-11T05:58:03;-8.40;99.90
7972;DHT22;4031;49.758;6.120;2024-01-11T06:00:28;-8.50;99.90
7972;DHT22;4031;49.758;6.120;2024-01-11T06:02:54;-8.50;99.90
7972;DHT22;4031;49.758;6.120;2024-01-11T06:05:20;-8.50;99.90
7972;DHT22;4031;49.758;6.120;2024-01-11T06:07:46;-8.50;99.90
7972;DHT22;4031;49.758;6.120;2024-01-11T06:10:14;-8.50;99.90
7972;DHT22;4031;49.758;6.120;2024-01-11T06:12:40;-8.50;99.90
7972;DHT22;4031;49.758;6.120;2024-01-11T06:15:07;-8.60;99.90
7972;DHT22;4031;49.758;6.120;2024-01-11T06:17:33;-8.60;99.90
7972;DHT22;4031;49.758;6.120;2024-01-11T06:19:58;-8.70;99.90
7972;DHT22;4031;49.758;6.120;2024-01-11T06:22:24;-8.70;99.90
7972;DHT22;4031;49.758;6.120;2024-01-11T06:24:50;-8.70;99.90
7972;DHT22;4031;49.758;6.120;2024-01-11T06:27:15;-8.70;99.90
7972;DHT22;4031;49.758;6.120;2024-01-11T06:29:41;-8.80;99.90
7972;DHT22;4031;49.758;6.120;2024-01-11T06:32:08;-8.80;99.90
7972;DHT22;4031;49.758;6.120;2024-01-11T06:34:35;-8.80;99.90
7972;DHT22;4031;49.758;6.120;2024-01-11T06:37:01;-8.80;99.90
7972;DHT22;4031;49.758;6.120;2024-01-11T06:39:28;-8.80;99.90
7972;DHT22;4031;49.758;6.120;2024-01-11T06:41:55;-8.80;99.90
7972;DHT22;4031;49.758;6.120;2024-01-11T06:44:21;-8.70;99.90
7972;DHT22;4031;49.758;6.120;2024-01-11T06:46:47;-8.60;99.90
7972;DHT22;4031;49.758;6.120;2024-01-11T06:49:12;-8.60;99.90
7972;DHT22;4031;49.758;6.120;2024-01-11T06:51:38;-8.60;99.90
7972;DHT22;4031;49.758;6.120;2024-01-11T06:54:04;-8.70;99.90
7972;DHT22;4031;49.758;6.120;2024-01-11T06:56:30;-8.70;99.90
7972;DHT22;4031;49.758;6.120;2024-01-11T06:58:56;-8.60;99.90
7972;DHT22;4031;49.758;6.120;2024-01-11T07:01:22;-8.60;99.90
7972;DHT22;4031;49.758;6.120;2024-01-11T07:03:48;-8.50;99.90
7972;DHT22;4031;49.758;6.120;2024-01-11T07:06:15;-8.50;99.90
7972;DHT22;4031;49.758;6.120;2024-01-11T07:08:41;-8.50;99.90
7972;DHT22;4031;49.758;6.120;2024-01-11T07:11:06;-8.50;99.90
7972;DHT22;4031;49.758;6.120;2024-01-11T07:13:33;-8.60;99.90
7972;DHT22;4031;49.758;6.120;2024-01-11T07:15:58;-8.50;99.90
7972;DHT22;4031;49.758;6.120;2024-01-11T07:18:25;-8.50;99.90
7972;DHT22;4031;49.758;6.120;2024-01-11T07:20:52;-8.50;99.90
7972;DHT22;4031;49.758;6.120;2024-01-11T07:23:18;-8.40;99.90
7972;DHT22;4031;49.758;6.120;2024-01-11T07:25:44;-8.50;99.90
7972;DHT22;4031;49.758;6.120;2024-01-11T07:28:10;-8.50;99.90
7972;DHT22;4031;49.758;6.120;2024-01-11T07:30:35;-8.60;99.90
7972;DHT22;4031;49.758;6.120;2024-01-11T07:33:01;-8.60;99.90
7972;DHT22;4031;49.758;6.120;2024-01-11T07:35:27;-8.60;99.90
7972;DHT22;4031;49.758;6.120;2024-01-11T07:37:53;-8.50;99.90
7972;DHT22;4031;49.758;6.120;2024-01-11T07:40:19;-8.40;99.90
7972;DHT22;4031;49.758;6.120;2024-01-11T07:42:45;-8.40;99.90
7972;DHT22;4031;49.758;6.120;2024-01-11T07:45:12;-8.40;99.90
7972;DHT22;4031;49.758;6.120;2024-01-11T07:47:38;-8.40;99.90
7972;DHT22;4031;49.758;6.120;2024-01-11T07:50:07;-8.30;99.90
7972;DHT22;4031;49.758;6.120;2024-01-11T07:52:35;-8.20;99.90
7972;DHT22;4031;49.758;6.120;2024-01-11T07:55:07;-8.10;99.90
7972;DHT22;4031;49.758;6.120;2024-01-11T07:57:34;-8.10;99.90
7972;DHT22;4031;49.758;6.120;2024-01-11T08:00:00;-8.00;99.90
7972;DHT22;4031;49.758;6.120;2024-01-11T08:02:26;-8.00;99.90
7972;DHT22;4031;49.758;6.120;2024-01-11T08:04:52;-7.80;99.90
7972;DHT22;4031;49.758;6.120;2024-01-11T08:07:18;-7.70;99.90
7972;DHT22;4031;49.758;6.120;2024-01-11T08:09:44;-7.70;99.90
7972;DHT22;4031;49.758;6.120;2024-01-11T08:12:14;-7.70;99.90
7972;DHT22;4031;49.758;6.120;2024-01-11T08:14:40;-7.60;99.90
7972;DHT22;4031;49.758;6.120;2024-01-11T08:17:07;-7.60;99.90
7972;DHT22;4031;49.758;6.120;2024-01-11T08:19:34;-7.60;99.90
7972;DHT22;4031;49.758;6.120;2024-01-11T08:22:00;-7.60;99.90
7972;DHT22;4031;49.758;6.120;2024-01-11T08:24:26;-7.60;99.90
7972;DHT22;4031;49.758;6.120;2024-01-11T08:26:52;-7.60;99.90
7972;DHT22;4031;49.758;6.120;2024-01-11T08:29:18;-7.60;99.90
7972;DHT22;4031;49.758;6.120;2024-01-11T08:31:47;-7.60;99.90
7972;DHT22;4031;49.758;6.120;2024-01-11T08:34:13;-7.60;99.90
7972;DHT22;4031;49.758;6.120;2024-01-11T08:36:39;-7.60;99.90
7972;DHT22;4031;49.758;6.120;2024-01-11T08:39:05;-7.60;99.90
7972;DHT22;4031;49.758;6.120;2024-01-11T08:41:32;-7.60;99.90
7972;DHT22;4031;49.758;6.120;2024-01-11T08:43:58;-7.50;99.90
7972;DHT22;4031;49.758;6.120;2024-01-11T08:46:26;-7.50;99.90
7972;DHT22;4031;49.758;6.120;2024-01-11T08:48:53;-7.50;99.90
7972;DHT22;4031;49.758;6.120;2024-01-11T08:51:19;-7.50;99.90
7972;DHT22;4031;49.758;6.120;2024-01-11T08:53:45;-7.40;99.90
7972;DHT22;4031;49.758;6.120;2024-01-11T08:56:11;-7.40;99.90
7972;DHT22;4031;49.758;6.120;2024-01-11T08:58:37;-7.30;99.90
7972;DHT22;4031;49.758;6.120;2024-01-11T09:01:05;-7.30;99.90
7972;DHT22;4031;49.758;6.120;2024-01-11T09:03:31;-7.20;99.90
7972;DHT22;4031;49.758;6.120;2024-01-11T09:05:57;-7.20;99.90
7972;DHT22;4031;49.758;6.120;2024-01-11T09:08:23;-7.10;99.90
7972;DHT22;4031;49.758;6.120;2024-01-11T09:10:49;-7.10;99.90
7972;DHT22;4031;49.758;6.120;2024-01-11T09:13:15;-7.00;99.90
7972;DHT22;4031;49.758;6.120;2024-01-11T09:15:43;-7.00;99.90
7972;DHT22;4031;49.758;6.120;2024-01-11T09:18:09;-7.00;99.90
7972;DHT22;4031;49.758;6.120;2024-01-11T09:20:35;-6.90;99.90
7972;DHT22;4031;49.758;6.120;2024-01-11T09:23:01;-6.90;99.90
7972;DHT22;4031;49.758;6.120;2024-01-11T09:25:29;-6.80;99.90
7972;DHT22;4031;49.758;6.120;2024-01-11T09:27:56;-6.70;99.90
7972;DHT22;4031;49.758;6.120;2024-01-11T09:30:21;-6.70;99.90
7972;DHT22;4031;49.758;6.120;2024-01-11T09:32:47;-6.70;99.90
7972;DHT22;4031;49.758;6.120;2024-01-11T09:35:13;-6.60;99.90
7972;DHT22;4031;49.758;6.120;2024-01-11T09:37:39;-6.50;99.90
7972;DHT22;4031;49.758;6.120;2024-01-11T09:40:06;-6.40;99.90
7972;DHT22;4031;49.758;6.120;2024-01-11T09:42:36;-6.20;99.90
7972;DHT22;4031;49.758;6.120;2024-01-11T09:45:08;-6.10;99.90
7972;DHT22;4031;49.758;6.120;2024-01-11T09:47:38;-5.90;99.90
7972;DHT22;4031;49.758;6.120;2024-01-11T09:50:05;-5.70;99.90
7972;DHT22;4031;49.758;6.120;2024-01-11T09:52:32;-5.50;99.90
7972;DHT22;4031;49.758;6.120;2024-01-11T09:55:01;-5.20;99.90
7972;DHT22;4031;49.758;6.120;2024-01-11T09:57:31;-4.90;99.90
7972;DHT22;4031;49.758;6.120;2024-01-11T10:00:04;-4.70;99.90
7972;DHT22;4031;49.758;6.120;2024-01-11T10:02:33;-4.50;99.90
7972;DHT22;4031;49.758;6.120;2024-01-11T10:04:59;-4.20;99.90
7972;DHT22;4031;49.758;6.120;2024-01-11T10:07:25;-3.90;99.90
7972;DHT22;4031;49.758;6.120;2024-01-11T10:09:51;-3.60;99.90
7972;DHT22;4031;49.758;6.120;2024-01-11T10:12:20;-3.30;99.90
7972;DHT22;4031;49.758;6.120;2024-01-11T10:14:50;-2.80;99.90
7972;DHT22;4031;49.758;6.120;2024-01-11T10:17:17;-2.20;99.90
7972;DHT22;4031;49.758;6.120;2024-01-11T10:19:46;-1.60;99.90
7972;DHT22;4031;49.758;6.120;2024-01-11T10:22:12;-1.10;99.90
7972;DHT22;4031;49.758;6.120;2024-01-11T10:24:39;-0.60;99.90
7972;DHT22;4031;49.758;6.120;2024-01-11T10:27:08;-0.20;99.90
7972;DHT22;4031;49.758;6.120;2024-01-11T10:29:35;0.30;99.90
7972;DHT22;4031;49.758;6.120;2024-01-11T10:32:04;0.50;99.90
7972;DHT22;4031;49.758;6.120;2024-01-11T10:34:30;0.60;99.90
7972;DHT22;4031;49.758;6.120;2024-01-11T10:36:56;0.80;99.90
7972;DHT22;4031;49.758;6.120;2024-01-11T10:39:26;1.10;99.90
7972;DHT22;4031;49.758;6.120;2024-01-11T10:42:06;1.50;99.90
7972;DHT22;4031;49.758;6.120;2024-01-11T10:44:34;1.70;99.90
7972;DHT22;4031;49.758;6.120;2024-01-11T10:47:03;2.00;99.90
7972;DHT22;4031;49.758;6.120;2024-01-11T10:49:33;2.20;99.90
7972;DHT22;4031;49.758;6.120;2024-01-11T10:52:01;2.10;99.90
7972;DHT22;4031;49.758;6.120;2024-01-11T10:54:29;2.10;99.90
7972;DHT22;4031;49.758;6.120;2024-01-11T10:56:58;1.80;99.90
7972;DHT22;4031;49.758;6.120;2024-01-11T10:59:31;1.70;99.90
7972;DHT22;4031;49.758;6.120;2024-01-11T11:01:58;1.70;99.90
7972;DHT22;4031;49.758;6.120;2024-01-11T11:04:32;1.80;99.90
7972;DHT22;4031;49.758;6.120;2024-01-11T11:07:01;2.10;99.90
7972;DHT22;4031;49.758;6.120;2024-01-11T11:09:28;2.40;99.90
7972;DHT22;4031;49.758;6.120;2024-01-11T11:11:58;2.80;99.90
7972;DHT22;4031;49.758;6.120;2024-01-11T11:14:24;3.10;99.90
7972;DHT22;4031;49.758;6.120;2024-01-11T11:16:51;3.40;99.90
7972;DHT22;4031;49.758;6.120;2024-01-11T11:19:19;3.70;99.90
7972;DHT22;4031;49.758;6.120;2024-01-11T11:21:47;4.30;99.90
7972;DHT22;4031;49.758;6.120;2024-01-11T11:24:13;4.80;99.90
7972;DHT22;4031;49.758;6.120;2024-01-11T11:26:40;5.20;99.90
7972;DHT22;4031;49.758;6.120;2024-01-11T11:29:06;5.70;99.90
7972;DHT22;4031;49.758;6.120;2024-01-11T11:31:45;6.40;99.90
7972;DHT22;4031;49.758;6.120;2024-01-11T11:34:13;7.00;99.90
7972;DHT22;4031;49.758;6.120;2024-01-11T11:36:44;7.30;99.90
7972;DHT22;4031;49.758;6.120;2024-01-11T11:39:11;7.60;99.90
7972;DHT22;4031;49.758;6.120;2024-01-11T11:41:37;7.70;99.90
7972;DHT22;4031;49.758;6.120;2024-01-11T11:44:04;8.00;99.90
7972;DHT22;4031;49.758;6.120;2024-01-11T11:46:32;8.00;99.90
7972;DHT22;4031;49.758;6.120;2024-01-11T11:48:58;7.90;99.90
7972;DHT22;4031;49.758;6.120;2024-01-11T11:51:25;8.10;99.90
7972;DHT22;4031;49.758;6.120;2024-01-11T11:53:52;8.00;99.90
7972;DHT22;4031;49.758;6.120;2024-01-11T11:56:19;7.70;99.90
7972;DHT22;4031;49.758;6.120;2024-01-11T11:58:47;7.30;99.90
7972;DHT22;4031;49.758;6.120;2024-01-11T12:01:15;6.70;99.90
7972;DHT22;4031;49.758;6.120;2024-01-11T12:03:43;6.30;99.90
7972;DHT22;4031;49.758;6.120;2024-01-11T12:06:20;6.00;99.90
7972;DHT22;4031;49.758;6.120;2024-01-11T12:08:49;5.70;99.90
7972;DHT22;4031;49.758;6.120;2024-01-11T12:11:19;5.70;99.90
7972;DHT22;4031;49.758;6.120;2024-01-11T12:13:50;5.50;99.90
7972;DHT22;4031;49.758;6.120;2024-01-11T12:16:16;5.40;99.90
7972;DHT22;4031;49.758;6.120;2024-01-11T12:18:42;5.20;99.90
7972;DHT22;4031;49.758;6.120;2024-01-11T12:21:08;4.90;99.90
7972;DHT22;4031;49.758;6.120;2024-01-11T12:23:37;4.90;99.90
7972;DHT22;4031;49.758;6.120;2024-01-11T12:26:06;4.80;99.90
7972;DHT22;4031;49.758;6.120;2024-01-11T12:28:37;4.80;99.90
7972;DHT22;4031;49.758;6.120;2024-01-11T12:31:03;4.80;99.90
7972;DHT22;4031;49.758;6.120;2024-01-11T12:33:29;4.80;99.90
7972;DHT22;4031;49.758;6.120;2024-01-11T12:35:55;4.90;99.90
7972;DHT22;4031;49.758;6.120;2024-01-11T12:38:21;5.20;99.90
7972;DHT22;4031;49.758;6.120;2024-01-11T12:40:47;5.50;99.90
7972;DHT22;4031;49.758;6.120;2024-01-11T12:43:13;6.10;99.90
7972;DHT22;4031;49.758;6.120;2024-01-11T12:45:41;6.40;99.90
7972;DHT22;4031;49.758;6.120;2024-01-11T12:48:07;6.30;99.90
7972;DHT22;4031;49.758;6.120;2024-01-11T12:50:34;6.00;99.90
7972;DHT22;4031;49.758;6.120;2024-01-11T12:53:14;5.70;99.90
7972;DHT22;4031;49.758;6.120;2024-01-11T12:55:46;5.50;99.90
7972;DHT22;4031;49.758;6.120;2024-01-11T12:58:13;5.10;99.90
7972;DHT22;4031;49.758;6.120;2024-01-11T13:00:45;4.80;99.90
7972;DHT22;4031;49.758;6.120;2024-01-11T13:03:11;4.50;99.90
7972;DHT22;4031;49.758;6.120;2024-01-11T13:05:37;4.40;99.90
7972;DHT22;4031;49.758;6.120;2024-01-11T13:08:08;4.40;99.90
7972;DHT22;4031;49.758;6.120;2024-01-11T13:10:35;4.40;99.90
7972;DHT22;4031;49.758;6.120;2024-01-11T13:13:01;4.40;99.90
7972;DHT22;4031;49.758;6.120;2024-01-11T13:15:28;4.30;99.90
7972;DHT22;4031;49.758;6.120;2024-01-11T13:18:00;4.20;99.90
7972;DHT22;4031;49.758;6.120;2024-01-11T13:20:27;4.10;99.90
7972;DHT22;4031;49.758;6.120;2024-01-11T13:25:44;4.10;99.90
7972;DHT22;4031;49.758;6.120;2024-01-11T13:28:10;4.10;99.90
7972;DHT22;4031;49.758;6.120;2024-01-11T13:30:38;4.20;99.90
7972;DHT22;4031;49.758;6.120;2024-01-11T13:33:08;4.20;99.90
7972;DHT22;4031;49.758;6.120;2024-01-11T13:35:35;4.30;99.90
7972;DHT22;4031;49.758;6.120;2024-01-11T13:38:02;4.40;99.90
7972;DHT22;4031;49.758;6.120;2024-01-11T13:40:29;4.50;99.90
7972;DHT22;4031;49.758;6.120;2024-01-11T13:42:55;4.60;99.90
7972;DHT22;4031;49.758;6.120;2024-01-11T13:45:24;4.60;99.90
7972;DHT22;4031;49.758;6.120;2024-01-11T13:47:51;4.60;99.90
7972;DHT22;4031;49.758;6.120;2024-01-11T13:50:19;4.60;99.90
7972;DHT22;4031;49.758;6.120;2024-01-11T13:52:45;4.70;99.90
7972;DHT22;4031;49.758;6.120;2024-01-11T13:55:12;4.70;99.90
7972;DHT22;4031;49.758;6.120;2024-01-11T13:57:39;4.80;99.90
7972;DHT22;4031;49.758;6.120;2024-01-11T14:00:05;4.90;99.90
7972;DHT22;4031;49.758;6.120;2024-01-11T14:02:32;4.90;99.90
7972;DHT22;4031;49.758;6.120;2024-01-11T14:04:59;5.10;99.90
7972;DHT22;4031;49.758;6.120;2024-01-11T14:07:24;5.30;99.90
7972;DHT22;4031;49.758;6.120;2024-01-11T14:09:51;5.40;99.90
7972;DHT22;4031;49.758;6.120;2024-01-11T14:12:17;5.50;99.90
7972;DHT22;4031;49.758;6.120;2024-01-11T14:14:43;5.60;99.90
7972;DHT22;4031;49.758;6.120;2024-01-11T14:17:09;5.60;99.90
7972;DHT22;4031;49.758;6.120;2024-01-11T14:19:35;5.60;99.90
7972;DHT22;4031;49.758;6.120;2024-01-11T14:22:01;5.70;99.90
7972;DHT22;4031;49.758;6.120;2024-01-11T14:24:27;6.00;99.90
7972;DHT22;4031;49.758;6.120;2024-01-11T14:26:53;6.10;99.90
7972;DHT22;4031;49.758;6.120;2024-01-11T14:29:19;6.30;99.90
7972;DHT22;4031;49.758;6.120;2024-01-11T14:31:45;6.60;99.90
7972;DHT22;4031;49.758;6.120;2024-01-11T14:34:11;7.00;99.90
7972;DHT22;4031;49.758;6.120;2024-01-11T14:36:37;7.20;99.90
7972;DHT22;4031;49.758;6.120;2024-01-11T14:39:03;7.30;99.90
7972;DHT22;4031;49.758;6.120;2024-01-11T14:41:33;7.50;99.90
7972;DHT22;4031;49.758;6.120;2024-01-11T14:44:00;7.60;99.90
7972;DHT22;4031;49.758;6.120;2024-01-11T14:46:26;7.60;99.90
7972;DHT22;4031;49.758;6.120;2024-01-11T14:48:52;7.70;99.90
7972;DHT22;4031;49.758;6.120;2024-01-11T14:51:18;7.70;99.90
7972;DHT22;4031;49.758;6.120;2024-01-11T14:53:44;7.80;99.90
7972;DHT22;4031;49.758;6.120;2024-01-11T14:56:11;7.70;99.90
7972;DHT22;4031;49.758;6.120;2024-01-11T14:58:38;7.60;99.90
7972;DHT22;4031;49.758;6.120;2024-01-11T15:01:04;7.50;99.90
7972;DHT22;4031;49.758;6.120;2024-01-11T15:03:30;7.50;99.90
7972;DHT22;4031;49.758;6.120;2024-01-11T15:05:56;7.40;99.90
7972;DHT22;4031;49.758;6.120;2024-01-11T15:08:22;7.30;99.90
7972;DHT22;4031;49.758;6.120;2024-01-11T15:10:48;6.80;99.90
7972;DHT22;4031;49.758;6.120;2024-01-11T15:13:14;6.10;99.90
7972;DHT22;4031;49.758;6.120;2024-01-11T15:15:40;5.30;99.90
7972;DHT22;4031;49.758;6.120;2024-01-11T15:18:06;4.60;99.90
7972;DHT22;4031;49.758;6.120;2024-01-11T15:20:32;4.00;99.90
7972;DHT22;4031;49.758;6.120;2024-01-11T15:22:58;3.40;99.90
7972;DHT22;4031;49.758;6.120;2024-01-11T15:25:23;3.00;99.90
7972;DHT22;4031;49.758;6.120;2024-01-11T15:27:52;2.60;99.90
7972;DHT22;4031;49.758;6.120;2024-01-11T15:30:19;2.30;99.90
7972;DHT22;4031;49.758;6.120;2024-01-11T15:32:44;1.90;99.90
7972;DHT22;4031;49.758;6.120;2024-01-11T15:35:10;1.60;99.90
7972;DHT22;4031;49.758;6.120;2024-01-11T15:37:37;1.30;99.90
7972;DHT22;4031;49.758;6.120;2024-01-11T15:40:04;1.10;99.90
7972;DHT22;4031;49.758;6.120;2024-01-11T15:42:34;0.80;99.90
7972;DHT22;4031;49.758;6.120;2024-01-11T15:45:00;0.60;99.90
7972;DHT22;4031;49.758;6.120;2024-01-11T15:47:31;0.50;99.90
7972;DHT22;4031;49.758;6.120;2024-01-11T15:49:57;0.30;99.90
7972;DHT22;4031;49.758;6.120;2024-01-11T15:52:24;0.10;99.90
7972;DHT22;4031;49.758;6.120;2024-01-11T15:54:50;-0.20;99.90
7972;DHT22;4031;49.758;6.120;2024-01-11T15:57:15;-0.30;99.90
7972;DHT22;4031;49.758;6.120;2024-01-11T15:59:41;-0.50;99.90
7972;DHT22;4031;49.758;6.120;2024-01-11T16:02:07;-0.70;99.90
7972;DHT22;4031;49.758;6.120;2024-01-11T16:04:34;-0.80;99.90
7972;DHT22;4031;49.758;6.120;2024-01-11T16:07:00;-1.00;99.90